createdAt,value
2023-04-09T00:00:41.390Z,24.92
2023-04-09T00:03:07.799Z,21.73
2023-04-09T00:05:38.201Z,25.15
2023-04-09T00:08:04.580Z,20.33
2023-04-09T00:10:31.074Z,23.17
2023-04-09T00:12:57.374Z,19.38
2023-04-09T00:15:30.773Z,21.35
2023-04-09T00:17:57.842Z,19.73
2023-04-09T00:20:24.228Z,18.50
2023-04-09T00:22:51.797Z,20.48
2023-04-09T00:25:18.466Z,19.88
2023-04-09T00:27:44.784Z,30.60
2023-04-09T00:30:11.577Z,29.27
2023-04-09T00:32:37.940Z,23.08
2023-04-09T00:35:04.383Z,21.52
2023-04-09T00:37:30.794Z,24.15
2023-04-09T00:39:57.081Z,21.95
2023-04-09T00:42:23.720Z,21.88
2023-04-09T00:44:50.034Z,16.17
2023-04-09T00:47:16.388Z,14.77
2023-04-09T00:49:42.801Z,13.93
2023-04-09T00:52:09.114Z,13.88
2023-04-09T00:54:35.403Z,13.18
2023-04-09T00:57:01.718Z,14.57
2023-04-09T00:59:28.594Z,13.68
2023-04-09T01:01:54.980Z,13.90
2023-04-09T01:04:21.751Z,14.50
2023-04-09T01:06:52.648Z,14.90
2023-04-09T01:09:24.757Z,15.07
2023-04-09T01:12:09.698Z,15.95
2023-04-09T01:14:44.059Z,13.80
2023-04-09T01:17:24.161Z,14.13
2023-04-09T01:20:05.085Z,15.43
2023-04-09T01:22:33.691Z,14.18
2023-04-09T01:25:18.888Z,14.27
2023-04-09T01:28:03.985Z,13.32
2023-04-09T01:30:30.777Z,14.75
2023-04-09T01:32:58.024Z,14.05
2023-04-09T01:35:25.164Z,13.40
2023-04-09T01:37:52.237Z,14.75
2023-04-09T01:40:18.741Z,14.30
2023-04-09T01:42:45.836Z,13.32
2023-04-09T01:45:13.686Z,15.65
2023-04-09T01:47:40.563Z,14.43
2023-04-09T01:50:07.490Z,13.70
2023-04-09T01:52:33.978Z,14.85
2023-04-09T01:55:00.312Z,13.77
2023-04-09T01:57:26.664Z,14.65
2023-04-09T01:59:54.174Z,14.43
2023-04-09T02:02:36.038Z,15.18
2023-04-09T02:05:05.858Z,15.00
2023-04-09T02:07:37.377Z,15.63
2023-04-09T02:10:05.712Z,12.90
2023-04-09T02:12:33.689Z,14.00
2023-04-09T02:15:01.028Z,14.82
2023-04-09T02:17:27.500Z,14.90
2023-04-09T02:19:53.913Z,14.23
2023-04-09T02:22:20.278Z,14.55
2023-04-09T02:24:46.788Z,14.23
2023-04-09T02:27:13.096Z,13.85
2023-04-09T02:29:39.660Z,14.23
2023-04-09T02:32:06.197Z,14.75
2023-04-09T02:34:32.736Z,14.63
2023-04-09T02:36:59.040Z,14.90
2023-04-09T02:39:25.400Z,13.50
2023-04-09T02:41:52.121Z,13.95
2023-04-09T02:44:18.504Z,15.90
2023-04-09T02:46:49.364Z,15.40
2023-04-09T02:49:16.003Z,14.75
2023-04-09T02:51:42.341Z,13.80
2023-04-09T02:54:08.693Z,14.20
2023-04-09T02:56:35.034Z,14.18
2023-04-09T02:59:01.318Z,13.93
2023-04-09T03:01:27.684Z,13.85
2023-04-09T03:03:54.078Z,14.10
2023-04-09T03:06:20.509Z,13.90
2023-04-09T03:08:46.816Z,16.42
2023-04-09T03:11:13.117Z,14.23
2023-04-09T03:13:39.418Z,16.05
2023-04-09T03:16:05.951Z,16.38
2023-04-09T03:18:32.361Z,16.38
2023-04-09T03:20:58.687Z,16.27
2023-04-09T03:23:25.077Z,16.05
2023-04-09T03:25:59.966Z,15.85
2023-04-09T03:28:26.241Z,14.82
2023-04-09T03:30:52.591Z,14.38
2023-04-09T03:33:19.611Z,16.30
2023-04-09T03:35:46.058Z,17.30
2023-04-09T03:38:12.404Z,16.58
2023-04-09T03:40:38.757Z,14.77
2023-04-09T03:43:05.284Z,16.40
2023-04-09T03:45:31.577Z,17.17
2023-04-09T03:47:58.017Z,17.17
2023-04-09T03:50:24.445Z,17.00
2023-04-09T03:52:50.828Z,16.77
2023-04-09T03:55:17.126Z,18.00
2023-04-09T03:57:43.411Z,16.80
2023-04-09T04:00:10.050Z,16.50
2023-04-09T04:02:36.500Z,18.17
2023-04-09T04:05:02.904Z,16.55
2023-04-09T04:07:29.200Z,18.20
2023-04-09T04:09:55.488Z,17.40
2023-04-09T04:12:21.793Z,18.30
2023-04-09T04:14:48.086Z,18.05
2023-04-09T04:17:14.373Z,17.75
2023-04-09T04:19:40.825Z,17.40
2023-04-09T04:22:07.252Z,17.95
2023-04-09T04:24:33.553Z,18.90
2023-04-09T04:26:59.843Z,21.60
2023-04-09T04:29:27.250Z,19.92
2023-04-09T04:31:53.598Z,21.02
2023-04-09T04:34:19.919Z,20.95
2023-04-09T04:36:46.209Z,21.27
2023-04-09T04:39:12.517Z,19.55
2023-04-09T04:41:38.822Z,20.45
2023-04-09T04:44:05.132Z,18.83
2023-04-09T04:46:31.435Z,18.55
2023-04-09T04:48:57.727Z,17.83
2023-04-09T04:51:24.036Z,18.25
2023-04-09T04:53:50.358Z,20.27
2023-04-09T04:56:16.729Z,17.05
2023-04-09T04:58:43.280Z,18.27
2023-04-09T05:01:09.665Z,18.38
2023-04-09T05:03:36.079Z,16.63
2023-04-09T05:06:02.977Z,17.83
2023-04-09T05:08:29.306Z,17.35
2023-04-09T05:10:58.565Z,20.40
2023-04-09T05:13:25.029Z,16.83
2023-04-09T05:15:51.637Z,22.05
2023-04-09T05:18:17.978Z,17.52
2023-04-09T05:20:44.322Z,18.67
2023-04-09T05:23:10.632Z,18.15
2023-04-09T05:25:36.918Z,18.27
2023-04-09T05:28:03.247Z,17.88
2023-04-09T05:30:29.604Z,16.67
2023-04-09T05:32:55.942Z,14.50
2023-04-09T05:35:22.250Z,15.50
2023-04-09T05:37:49.090Z,17.40
2023-04-09T05:40:15.633Z,15.10
2023-04-09T05:42:42.015Z,13.48
2023-04-09T05:45:08.813Z,14.13
2023-04-09T05:47:35.153Z,14.80
2023-04-09T05:50:01.789Z,14.25
2023-04-09T05:52:28.512Z,16.75
2023-04-09T05:54:54.905Z,18.05
2023-04-09T05:57:21.220Z,16.42
2023-04-09T05:59:47.528Z,16.50
2023-04-09T06:02:13.950Z,35.80
2023-04-09T06:04:40.295Z,35.65
2023-04-09T06:07:06.604Z,31.15
2023-04-09T06:09:32.896Z,32.15
2023-04-09T06:11:59.197Z,29.88
2023-04-09T06:14:25.509Z,26.45
2023-04-09T06:16:51.861Z,31.92
2023-04-09T06:19:18.724Z,33.00
2023-04-09T06:21:45.290Z,36.53
2023-04-09T06:24:11.850Z,35.00
2023-04-09T06:26:38.170Z,33.25
2023-04-09T06:29:04.784Z,34.20
2023-04-09T06:31:31.155Z,18.48
2023-04-09T06:33:57.451Z,19.88
2023-04-09T06:36:23.753Z,26.10
2023-04-09T06:38:50.231Z,34.50
2023-04-09T06:41:16.640Z,35.05
2023-04-09T06:43:43.006Z,36.53
2023-04-09T06:46:09.395Z,29.55
2023-04-09T06:48:35.968Z,43.83
2023-04-09T06:51:02.351Z,37.58
2023-04-09T06:53:28.651Z,30.63
2023-04-09T06:55:56.749Z,41.63
2023-04-09T06:58:23.595Z,36.17
2023-04-09T07:00:49.898Z,36.10
2023-04-09T07:03:16.449Z,26.65
2023-04-09T07:05:43.191Z,37.95
2023-04-09T07:08:09.551Z,20.95
2023-04-09T07:10:35.847Z,19.33
2023-04-09T07:13:02.139Z,18.67
2023-04-09T07:15:28.456Z,19.00
2023-04-09T07:17:54.885Z,18.40
2023-04-09T07:20:21.213Z,17.52
2023-04-09T07:22:47.573Z,18.20
2023-04-09T07:25:14.592Z,19.08
2023-04-09T07:27:40.979Z,24.08
2023-04-09T07:30:07.556Z,24.30
2023-04-09T07:32:34.023Z,21.40
2023-04-09T07:35:00.610Z,19.58
2023-04-09T07:37:27.133Z,21.63
2023-04-09T07:39:53.496Z,18.60
2023-04-09T07:42:19.817Z,19.33
2023-04-09T07:44:47.512Z,20.73
2023-04-09T07:47:14.069Z,19.13
2023-04-09T07:49:40.396Z,21.10
2023-04-09T07:52:06.966Z,19.95
2023-04-09T07:54:33.997Z,19.90
2023-04-09T07:57:01.702Z,19.48
2023-04-09T07:59:28.068Z,20.25
2023-04-09T08:01:54.446Z,20.63
2023-04-09T08:04:21.289Z,19.92
2023-04-09T08:06:50.643Z,19.67
2023-04-09T08:09:17.552Z,19.58
2023-04-09T08:11:45.646Z,19.80
2023-04-09T08:14:13.011Z,21.23
2023-04-09T08:16:40.459Z,21.08
2023-04-09T08:19:07.226Z,19.05
2023-04-09T08:21:33.522Z,23.25
2023-04-09T08:24:04.348Z,22.98
2023-04-09T08:26:31.045Z,23.83
2023-04-09T08:28:57.457Z,23.58
2023-04-09T08:31:24.102Z,27.35
2023-04-09T08:33:50.940Z,28.15
2023-04-09T08:36:17.463Z,17.48
2023-04-09T08:38:45.111Z,19.50
2023-04-09T08:41:17.355Z,13.25
2023-04-09T08:43:56.963Z,11.70
2023-04-09T08:46:24.867Z,27.83
2023-04-09T08:48:51.939Z,28.25
2023-04-09T08:51:19.484Z,25.45
2023-04-09T08:53:47.714Z,26.05
2023-04-09T08:56:14.664Z,25.02
2023-04-09T08:58:42.557Z,24.75
2023-04-09T09:01:38.179Z,25.48
2023-04-09T09:04:06.181Z,22.30
2023-04-09T09:06:36.321Z,24.08
2023-04-09T09:09:05.060Z,25.50
2023-04-09T09:11:31.767Z,25.35
2023-04-09T09:13:59.165Z,24.25
2023-04-09T09:16:25.814Z,26.15
2023-04-09T09:18:53.388Z,26.38
2023-04-09T09:21:21.107Z,27.00
2023-04-09T09:23:49.619Z,36.53
2023-04-09T09:26:21.188Z,38.17
2023-04-09T09:28:48.947Z,40.80
2023-04-09T09:31:16.065Z,34.45
2023-04-09T09:33:42.983Z,39.00
2023-04-09T09:36:09.723Z,39.25
2023-04-09T09:38:53.877Z,45.08
2023-04-09T09:41:20.589Z,44.53
2023-04-09T09:43:47.202Z,40.20
2023-04-09T09:46:13.684Z,41.13
2023-04-09T09:48:40.209Z,36.55
2023-04-09T09:51:10.970Z,34.33
2023-04-09T09:53:37.767Z,36.92
2023-04-09T09:56:08.161Z,36.53
2023-04-09T09:58:38.184Z,38.70
2023-04-09T10:01:12.463Z,37.05
2023-04-09T10:03:39.644Z,32.93
2023-04-09T10:06:07.655Z,35.40
2023-04-09T10:08:34.835Z,33.47
2023-04-09T10:11:01.467Z,27.23
2023-04-09T10:13:35.307Z,24.33
2023-04-09T10:16:02.304Z,28.73
2023-04-09T10:18:30.017Z,21.13
2023-04-09T10:21:01.735Z,23.70
2023-04-09T10:23:54.072Z,23.58
2023-04-09T10:26:20.391Z,22.45
2023-04-09T10:28:46.984Z,25.58
2023-04-09T10:31:14.069Z,24.65
2023-04-09T10:33:43.533Z,24.30
2023-04-09T10:36:10.991Z,20.70
2023-04-09T10:38:38.820Z,14.60
2023-04-09T10:41:07.986Z,15.73
2023-04-09T10:43:35.849Z,16.20
2023-04-09T10:46:04.170Z,16.17
2023-04-09T10:48:32.790Z,15.75
2023-04-09T10:50:59.088Z,14.60
2023-04-09T10:53:26.053Z,14.48
2023-04-09T10:55:52.989Z,16.02
2023-04-09T10:58:19.712Z,16.42
2023-04-09T11:00:47.330Z,16.48
2023-04-09T11:03:40.231Z,16.48
2023-04-09T11:06:11.597Z,15.48
2023-04-09T11:08:38.631Z,13.18
2023-04-09T11:11:05.925Z,13.02
2023-04-09T11:13:32.694Z,13.40
2023-04-09T11:16:00.559Z,13.02
2023-04-09T11:18:27.912Z,13.57
2023-04-09T11:20:57.475Z,12.77
2023-04-09T11:23:24.962Z,12.60
2023-04-09T11:25:51.660Z,12.18
2023-04-09T11:28:18.474Z,11.77
2023-04-09T11:30:46.774Z,12.45
2023-04-09T11:33:13.532Z,10.18
2023-04-09T11:35:40.002Z,10.52
2023-04-09T11:38:10.125Z,10.75
2023-04-09T11:40:36.926Z,10.88
2023-04-09T11:43:03.279Z,9.57
2023-04-09T11:45:31.082Z,10.65
2023-04-09T11:47:57.624Z,9.93
2023-04-09T11:50:24.281Z,10.60
2023-04-09T11:52:50.907Z,9.93
2023-04-09T11:55:24.279Z,7.47
2023-04-09T11:57:51.705Z,10.07
2023-04-09T12:00:18.136Z,10.15
2023-04-09T12:02:49.250Z,10.23
2023-04-09T12:05:22.637Z,9.35
2023-04-09T12:07:56.270Z,9.50
2023-04-09T12:10:26.325Z,9.32
2023-04-09T12:12:52.618Z,9.93
2023-04-09T12:15:20.804Z,10.10
2023-04-09T12:17:48.042Z,9.07
2023-04-09T12:20:14.356Z,9.23
2023-04-09T12:22:41.324Z,9.02
2023-04-09T12:25:08.663Z,8.73
2023-04-09T12:27:34.990Z,9.55
2023-04-09T12:30:01.307Z,9.25
2023-04-09T12:32:28.159Z,9.23
2023-04-09T12:34:54.503Z,8.75
2023-04-09T12:37:20.995Z,8.57
2023-04-09T12:39:48.042Z,8.90
2023-04-09T12:42:14.360Z,10.20
2023-04-09T12:44:40.661Z,8.50
2023-04-09T12:47:07.917Z,9.43
2023-04-09T12:49:34.429Z,8.25
2023-04-09T12:52:00.718Z,9.07
2023-04-09T12:54:27.011Z,15.88
2023-04-09T12:56:53.336Z,15.23
2023-04-09T12:59:19.704Z,16.98
2023-04-09T13:01:46.122Z,17.13
2023-04-09T13:04:12.589Z,13.07
2023-04-09T13:06:39.027Z,17.65
2023-04-09T13:09:05.361Z,19.08
2023-04-09T13:11:32.005Z,17.10
2023-04-09T13:13:58.312Z,18.27
2023-04-09T13:16:24.678Z,22.80
2023-04-09T13:18:52.086Z,18.67
2023-04-09T13:21:18.970Z,25.02
2023-04-09T13:23:45.331Z,20.85
2023-04-09T13:26:11.724Z,21.80
2023-04-09T13:28:38.109Z,32.60
2023-04-09T13:31:05.403Z,20.38
2023-04-09T13:33:31.866Z,24.05
2023-04-09T13:35:58.319Z,20.98
2023-04-09T13:38:24.706Z,21.83
2023-04-09T13:40:51.028Z,20.13
2023-04-09T13:43:17.364Z,15.85
2023-04-09T13:45:43.695Z,19.67
2023-04-09T13:48:10.101Z,18.20
2023-04-09T13:50:36.882Z,18.88
2023-04-09T13:53:05.279Z,17.77
2023-04-09T13:55:31.682Z,18.30
2023-04-09T13:57:58.032Z,23.38
2023-04-09T14:00:24.331Z,13.45
2023-04-09T14:02:51.079Z,16.65
2023-04-09T14:05:17.642Z,17.75
2023-04-09T14:07:43.985Z,17.15
2023-04-09T14:10:10.599Z,13.75
2023-04-09T14:12:36.906Z,15.98
2023-04-09T14:15:03.497Z,16.48
2023-04-09T14:17:31.033Z,16.77
2023-04-09T14:19:58.972Z,14.23
2023-04-09T14:22:26.561Z,14.30
2023-04-09T14:24:53.233Z,17.83
2023-04-09T14:27:19.538Z,18.67
2023-04-09T14:29:46.112Z,17.70
2023-04-09T14:32:12.433Z,12.38
2023-04-09T14:34:38.770Z,17.40
2023-04-09T14:37:05.158Z,16.58
2023-04-09T14:39:31.465Z,15.55
2023-04-09T14:41:57.794Z,17.25
2023-04-09T14:44:25.909Z,13.30
2023-04-09T14:46:54.664Z,17.08
2023-04-09T14:49:21.513Z,17.30
2023-04-09T14:51:47.882Z,15.82
2023-04-09T14:54:14.200Z,15.50
2023-04-09T14:56:40.560Z,13.38
2023-04-09T14:59:06.850Z,14.23
2023-04-09T15:01:33.504Z,14.57
2023-04-09T15:04:00.500Z,11.63
2023-04-09T15:06:27.963Z,9.55
2023-04-09T15:08:54.530Z,8.38
2023-04-09T15:11:22.825Z,9.30
2023-04-09T15:13:49.227Z,8.43
2023-04-09T15:16:23.191Z,8.50
2023-04-09T15:18:51.951Z,8.35
2023-04-09T15:21:18.813Z,9.27
2023-04-09T15:23:45.481Z,8.93
2023-04-09T15:26:11.803Z,10.77
2023-04-09T15:28:38.097Z,8.98
2023-04-09T15:31:04.558Z,9.38
2023-04-09T15:33:32.414Z,9.50
2023-04-09T15:35:59.008Z,9.10
2023-04-09T15:38:25.466Z,9.60
2023-04-09T15:40:52.365Z,9.90
2023-04-09T15:43:18.665Z,9.10
2023-04-09T15:45:45.034Z,8.55
2023-04-09T15:48:11.342Z,9.05
2023-04-09T15:50:38.365Z,8.20
2023-04-09T15:53:04.665Z,9.43
2023-04-09T15:55:31.921Z,8.48
2023-04-09T15:57:58.214Z,8.15
2023-04-09T16:00:24.564Z,9.38
2023-04-09T16:02:51.065Z,8.60
2023-04-09T16:05:17.359Z,8.45
2023-04-09T16:07:43.660Z,8.25
2023-04-09T16:10:10.365Z,8.02
2023-04-09T16:12:36.680Z,8.95
2023-04-09T16:15:03.109Z,8.00
2023-04-09T16:17:30.577Z,8.05
2023-04-09T16:19:57.107Z,8.32
2023-04-09T16:22:23.493Z,7.38
2023-04-09T16:24:49.783Z,9.15
2023-04-09T16:27:16.731Z,8.20
2023-04-09T16:29:43.440Z,7.75
2023-04-09T16:32:09.808Z,7.88
2023-04-09T16:34:36.148Z,7.97
2023-04-09T16:37:02.435Z,7.55
2023-04-09T16:39:29.520Z,8.05
2023-04-09T16:41:58.238Z,7.43
2023-04-09T16:44:25.128Z,7.45
2023-04-09T16:46:51.870Z,10.30
2023-04-09T16:49:18.174Z,6.57
2023-04-09T16:51:46.008Z,7.60
2023-04-09T16:54:12.886Z,7.00
2023-04-09T16:56:39.228Z,7.18
2023-04-09T16:59:05.596Z,6.32
2023-04-09T17:01:32.386Z,6.60
2023-04-09T17:04:00.692Z,7.47
2023-04-09T17:06:27.394Z,6.70
2023-04-09T17:08:54.155Z,6.80
2023-04-09T17:11:21.263Z,6.88
2023-04-09T17:13:47.599Z,6.22
2023-04-09T17:16:14.297Z,6.60
2023-04-09T17:18:40.659Z,5.93
2023-04-09T17:21:07.049Z,7.13
2023-04-09T17:23:33.369Z,7.40
2023-04-09T17:26:00.160Z,6.75
2023-04-09T17:28:26.485Z,6.03
2023-04-09T17:30:52.790Z,6.65
2023-04-09T17:33:19.077Z,5.82
2023-04-09T17:35:45.398Z,6.78
2023-04-09T17:38:17.088Z,6.05
2023-04-09T17:40:43.380Z,6.00
2023-04-09T17:43:09.706Z,7.13
2023-04-09T17:45:36.220Z,6.97
2023-04-09T17:48:02.938Z,6.00
2023-04-09T17:50:29.468Z,6.32
2023-04-09T17:52:55.961Z,6.28
2023-04-09T17:55:23.372Z,6.88
2023-04-09T17:57:49.837Z,6.30
2023-04-09T18:00:16.687Z,5.72
2023-04-09T18:02:43.845Z,6.03
2023-04-09T18:05:10.673Z,6.60
2023-04-09T18:07:38.572Z,5.90
2023-04-09T18:10:05.412Z,4.63
2023-04-09T18:12:32.310Z,6.30
2023-04-09T18:14:58.663Z,22.73
2023-04-09T18:17:26.368Z,28.27
2023-04-09T18:19:58.299Z,6.10
2023-04-09T18:22:25.154Z,6.80
2023-04-09T18:24:52.091Z,6.35
2023-04-09T18:27:18.470Z,4.80
2023-04-09T18:29:44.767Z,6.50
2023-04-09T18:32:11.066Z,6.55
2023-04-09T18:34:38.120Z,5.75
2023-04-09T18:37:04.413Z,5.45
2023-04-09T18:39:30.977Z,6.10
2023-04-09T18:41:57.581Z,12.07
2023-04-09T18:44:23.896Z,6.45
2023-04-09T18:46:50.262Z,5.85
2023-04-09T18:49:16.654Z,5.93
2023-04-09T18:51:42.994Z,6.50
2023-04-09T18:54:09.303Z,5.85
2023-04-09T18:56:36.491Z,6.85
2023-04-09T18:59:02.818Z,6.30
2023-04-09T19:01:29.361Z,5.93
2023-04-09T19:03:55.965Z,5.97
2023-04-09T19:06:23.280Z,5.88
2023-04-09T19:08:50.389Z,5.97
2023-04-09T19:11:16.896Z,5.63
2023-04-09T19:13:43.226Z,7.13
2023-04-09T19:16:09.723Z,5.80
2023-04-09T19:18:36.809Z,5.07
2023-04-09T19:21:03.239Z,5.63
2023-04-09T19:23:30.634Z,6.05
2023-04-09T19:25:57.344Z,6.80
2023-04-09T19:28:23.701Z,5.63
2023-04-09T19:30:53.562Z,6.70
2023-04-09T19:33:20.907Z,5.55
2023-04-09T19:35:50.715Z,5.95
2023-04-09T19:38:17.741Z,5.40
2023-04-09T19:40:44.593Z,5.43
2023-04-09T19:43:11.281Z,5.57
2023-04-09T19:45:38.267Z,5.82
2023-04-09T19:48:05.471Z,5.53
2023-04-09T19:50:34.496Z,5.47
2023-04-09T19:53:00.826Z,5.78
2023-04-09T19:55:27.182Z,5.57
2023-04-09T19:57:53.567Z,6.10
2023-04-09T20:00:19.966Z,6.57
2023-04-09T20:02:46.570Z,5.68
2023-04-09T20:05:14.115Z,5.70
2023-04-09T20:07:40.842Z,5.40
2023-04-09T20:10:07.596Z,6.13
2023-04-09T20:12:34.440Z,5.28
2023-04-09T20:15:02.063Z,6.57
2023-04-09T20:17:28.455Z,6.72
2023-04-09T20:19:56.027Z,6.95
2023-04-09T20:22:23.740Z,5.82
2023-04-09T20:24:50.093Z,7.07
2023-04-09T20:27:16.602Z,5.47
2023-04-09T20:29:43.030Z,7.13
2023-04-09T20:32:09.431Z,7.57
2023-04-09T20:34:35.968Z,7.93
2023-04-09T20:37:05.422Z,6.82
2023-04-09T20:39:31.754Z,7.40
2023-04-09T20:41:58.024Z,6.78
2023-04-09T20:44:24.584Z,7.93
2023-04-09T20:46:51.325Z,8.70
2023-04-09T20:49:17.711Z,7.32
2023-04-09T20:51:44.612Z,8.23
2023-04-09T20:54:10.921Z,7.07
2023-04-09T20:56:37.233Z,8.27
2023-04-09T20:59:03.817Z,8.57
2023-04-09T21:01:30.280Z,7.68
2023-04-09T21:03:56.849Z,7.65
2023-04-09T21:06:23.336Z,8.07
2023-04-09T21:08:49.757Z,8.18
2023-04-09T21:11:16.059Z,8.55
2023-04-09T21:13:54.109Z,7.65
2023-04-09T21:16:21.374Z,7.03
2023-04-09T21:18:48.837Z,8.85
2023-04-09T21:21:15.580Z,8.10
2023-04-09T21:23:41.970Z,7.22
2023-04-09T21:26:08.974Z,7.60
2023-04-09T21:28:35.338Z,8.10
2023-04-09T21:31:01.868Z,7.43
2023-04-09T21:33:29.896Z,7.47
2023-04-09T21:35:56.993Z,7.82
2023-04-09T21:38:23.422Z,8.32
2023-04-09T21:40:49.867Z,7.72
2023-04-09T21:43:16.624Z,7.88
2023-04-09T21:45:42.977Z,8.18
2023-04-09T21:48:09.423Z,7.85
2023-04-09T21:50:36.011Z,9.52
2023-04-09T21:53:03.270Z,9.38
2023-04-09T21:55:29.683Z,8.38
2023-04-09T21:57:56.155Z,8.27
2023-04-09T22:00:22.561Z,7.32
2023-04-09T22:02:48.996Z,7.80
2023-04-09T22:05:15.624Z,7.32
2023-04-09T22:07:42.633Z,9.43
2023-04-09T22:10:09.193Z,8.40
2023-04-09T22:12:37.117Z,7.63
2023-04-09T22:15:04.548Z,9.10
2023-04-09T22:17:31.185Z,7.85
2023-04-09T22:19:57.508Z,8.80
2023-04-09T22:22:23.911Z,7.85
2023-04-09T22:24:50.628Z,7.47
2023-04-09T22:27:17.192Z,8.23
2023-04-09T22:29:43.484Z,8.23
2023-04-09T22:32:09.795Z,7.90
2023-04-09T22:34:36.297Z,8.13
2023-04-09T22:37:02.658Z,7.80
2023-04-09T22:39:29.266Z,8.10
2023-04-09T22:41:56.146Z,7.72
2023-04-09T22:44:22.510Z,7.15
2023-04-09T22:46:48.939Z,7.68
2023-04-09T22:49:15.777Z,8.00
2023-04-09T22:51:42.627Z,7.68
2023-04-09T22:54:09.497Z,7.93
2023-04-09T22:56:36.674Z,8.63
2023-04-09T22:59:03.021Z,8.15
2023-04-09T23:01:29.870Z,7.45
2023-04-09T23:03:56.355Z,7.88
2023-04-09T23:06:24.475Z,7.18
2023-04-09T23:08:50.939Z,7.75
2023-04-09T23:11:17.369Z,8.43
2023-04-09T23:13:43.689Z,6.97
2023-04-09T23:16:10.309Z,8.23
2023-04-09T23:18:37.017Z,8.30
2023-04-09T23:21:07.208Z,7.15
2023-04-09T23:23:33.987Z,7.95
2023-04-09T23:26:00.878Z,8.30
2023-04-09T23:28:27.342Z,8.18
2023-04-09T23:30:53.895Z,7.70
2023-04-09T23:33:20.477Z,7.55
2023-04-09T23:35:46.850Z,7.72
2023-04-09T23:38:13.198Z,7.82
2023-04-09T23:40:39.501Z,8.25
2023-04-09T23:43:05.967Z,8.80
2023-04-09T23:45:32.277Z,8.02
2023-04-09T23:47:58.721Z,7.45
2023-04-09T23:50:25.258Z,6.70
2023-04-09T23:52:51.630Z,7.97
2023-04-09T23:55:17.981Z,7.47
2023-04-09T23:57:44.882Z,7.55
